Latest Coastal Weather Observations for Frederick Reef

IDQ60701

Issued at 11:51 pm EST Thursday 18 January 2018 (issued every 10 minutes, with the page automatically refreshed every 10 minutes)

About coastal observations | Map of coastal stations | Coastal observations for QLD | Marine services | Other Formats
Station Details ID: 200701 Name: FREDERICK REEF Lat: -20.94 Lon: 154.40 Height: 4.9 m
Data from the previous 72 hours. | See also: Recent months for locations in Queensland
Date/Time
EST
Temp
°C
Wind Pressure Rain since
9am
mm
Weather Cloud Vis
km
Sea
Height
m
Swell
Dir  Spd
kts
Gust
kts
hPa Trend Height
m
Period
s
Dir
18/11:30pm 26.3 SE 19 21 1013.4 - - - - - - - - -
18/11:00pm 26.3 ESE 20 24 1013.6 - - - - - - - - -
18/10:30pm 26.5 ESE 21 24 1014.0 - - - - - - - - -
18/10:00pm 26.4 SE 22 26 1013.9 - - - - - - - - -
18/09:30pm 26.3 SE 22 26 1013.7 - - - - - - - - -
18/09:00pm 26.1 SE 21 24 1013.6 - - - - - - - - -
18/08:30pm 26.5 SE 23 26 1013.5 - - - - - - - - -
18/08:00pm 26.4 SE 22 25 1013.4 - - - - - - - - -
18/07:30pm 26.3 ESE 22 24 1013.4 - - - - - - - - -
18/07:00pm 26.3 SE 21 25 1013.1 - - - - - - - - -
18/06:30pm 26.4 SE 23 27 1012.9 - - - - - - - - -
18/06:00pm 26.3 SSE 24 27 1012.6 - - - - - - - - -
18/05:30pm 26.3 SE 24 26 1012.3 - - - - - - - - -
18/05:00pm 26.3 SE 24 28 1012.0 - - - - - - - - -
18/04:30pm 26.5 SE 22 25 1012.1 - - - - - - - - -
18/04:00pm 26.6 SE 22 26 1012.3 - - - - - - - - -
18/03:30pm 26.4 SE 19 22 1012.3 - - - - - - - - -
18/03:00pm 26.3 SE 20 24 1012.3 - - - - - - - - -
18/02:30pm 26.4 SE 19 21 1012.8 - - - - - - - - -
18/02:00pm 26.5 ESE 19 23 1012.9 - - - - - - - - -
18/01:30pm 26.3 SE 19 23 1013.3 - - - - - - - - -
18/01:00pm 26.5 SE 20 23 1013.5 - - - - - - - - -
18/12:30pm 26.4 ESE 21 24 1013.9 - - - - - - - - -
18/12:00pm 26.3 ESE 22 25 1014.0 - - - - - - - - -
18/11:30am 26.3 ESE 21 24 1014.4 - - - - - - - - -
18/11:00am 26.3 ESE 21 24 1014.3 - - - - - - - - -
18/10:30am 26.3 ESE 21 23 1014.6 - - - - - - - - -
18/10:00am 26.1 ESE 20 22 1014.7 - - - - - - - - -
18/09:30am 26.2 ESE 21 25 1014.9 - - - - - - - - -
18/09:00am 26.5 ESE 20 23 1014.9 - - - - - - - - -
18/08:30am 26.4 SE 21 22 1015.0 - - - - - - - - -
18/08:00am 26.4 SE 20 22 1014.8 - - - - - - - - -
18/07:30am 26.4 SE 21 24 1014.6 - - - - - - - - -
18/07:00am 26.5 SE 21 25 1014.3 - - - - - - - - -
18/06:30am 26.3 SE 21 24 1014.5 - - - - - - - - -
18/06:00am 26.2 SE 23 26 1014.1 - - - - - - - - -
18/05:30am 26.1 SE 24 27 1013.6 - - - - - - - - -
18/05:00am 26.0 SE 22 25 1013.2 - - - - - - - - -
18/04:30am 26.0 SE 22 25 1013.0 - - - - - - - - -
18/04:00am 25.9 SE 21 24 1012.8 - - - - - - - - -
18/03:30am 26.2 SE 20 22 1012.5 - - - - - - - - -
18/03:00am 26.0 SE 22 25 1012.4 - - - - - - - - -
18/02:30am 26.1 SE 23 26 1012.9 - - - - - - - - -
18/02:00am 26.1 SE 23 26 1012.9 - - - - - - - - -
18/01:30am 26.2 SE 23 25 1013.3 - - - - - - - - -
18/01:00am 26.2 SE 23 26 1013.4 - - - - - - - - -
18/12:30am 26.1 SE 23 25 1013.8 - - - - - - - - -
18/12:00am 26.2 SE 24 27 1013.9 - - - - - - - - -
 
Date/Time
EST
Temp
°C
Wind Pressure Rain since
9am
mm
Weather Cloud Vis
km
Sea
Height
m
Swell
Dir  Spd
kts
Gust
kts
hPa Trend Height
m
Period
s
Dir
17/11:30pm 26.2 SE 24 27 1014.4 - - - - - - - - -
17/11:00pm 26.2 SE 25 27 1014.4 - - - - - - - - -
17/10:30pm 26.4 SE 23 26 1014.6 - - - - - - - - -
17/10:00pm 26.5 SE 24 25 1014.5 - - - - - - - - -
17/09:30pm 25.8 ESE 21 25 1014.8 - - - - - - - - -
17/09:00pm 26.5 SE 23 27 1014.6 - - - - - - - - -
17/08:30pm 26.5 SE 24 27 1014.3 - - - - - - - - -
17/08:00pm 26.5 SE 24 28 1013.9 - - - - - - - - -
17/07:30pm 26.4 SE 24 27 1013.8 - - - - - - - - -
17/07:00pm 26.6 SE 24 27 1013.4 - - - - - - - - -
17/06:30pm 26.7 SE 25 28 1012.9 - - - - - - - - -
17/06:00pm 26.5 SE 26 29 1012.6 - - - - - - - - -
17/05:30pm 26.7 SE 25 30 1012.5 - - - - - - - - -
17/05:00pm 26.6 SE 19 28 1012.1 - - - - - - - - -
17/04:30pm 26.5 SE 25 28 1011.7 - - - - - - - - -
17/04:00pm 26.4 SE 24 29 1011.5 - - - - - - - - -
17/03:30pm 26.5 SE 24 27 1011.4 - - - - - - - - -
17/03:00pm 26.5 SE 25 28 1011.4 - - - - - - - - -
17/02:30pm 26.5 SE 24 28 1011.8 - - - - - - - - -
17/02:00pm 26.4 SE 25 29 1011.8 - - - - - - - - -
17/01:30pm 26.3 SE 26 28 1012.0 - - - - - - - - -
17/01:00pm 26.1 SE 26 30 1011.9 - - - - - - - - -
17/12:30pm 26.3 SE 23 25 1012.3 - - - - - - - - -
17/12:00pm 26.1 SE 24 27 1012.1 - - - - - - - - -
17/11:30am 26.1 SE 25 29 1012.4 - - - - - - - - -
17/11:00am 26.5 SE 24 27 1012.3 - - - - - - - - -
17/10:30am 26.1 SE 25 28 1012.4 - - - - - - - - -
17/10:00am 26.2 SE 27 30 1012.3 - - - - - - - - -
17/09:30am 25.8 ESE 25 27 1012.5 - - - - - - - - -
17/09:00am 25.6 SE 27 29 1012.4 - - - - - - - - -
17/08:30am 25.9 SSE 20 22 1012.6 - - - - - - - - -
17/08:00am 26.0 SE 21 23 1012.4 - - - - - - - - -
17/07:30am 26.4 SE 23 26 1012.2 - - - - - - - - -
17/07:00am 26.3 ESE 22 27 1012.0 - - - - - - - - -
17/06:30am 26.5 ESE 22 25 1011.7 - - - - - - - - -
17/06:00am 26.2 ESE 21 23 1011.3 - - - - - - - - -
17/05:30am 26.1 ESE 22 25 1011.0 - - - - - - - - -
17/05:00am 26.2 ESE 22 25 1010.5 - - - - - - - - -
17/04:30am 26.0 SE 22 24 1010.2 - - - - - - - - -
17/04:00am 26.0 SE 23 26 1009.9 - - - - - - - - -
17/03:30am 26.1 SE 22 25 1010.1 - - - - - - - - -
17/03:00am 25.9 SE 21 25 1010.0 - - - - - - - - -
17/02:30am 26.0 SE 22 25 1010.3 - - - - - - - - -
17/02:00am 26.1 SE 23 26 1010.3 - - - - - - - - -
17/01:30am 26.1 SE 22 26 1010.7 - - - - - - - - -
17/01:00am 26.2 SE 23 26 1010.7 - - - - - - - - -
17/12:30am 26.1 SE 22 25 1010.9 - - - - - - - - -
17/12:00am 26.1 SE 22 25 1010.8 - - - - - - - - -
 
Date/Time
EST
Temp
°C
Wind Pressure Rain since
9am
mm
Weather Cloud Vis
km
Sea
Height
m
Swell
Dir  Spd
kts
Gust
kts
hPa Trend Height
m
Period
s
Dir
16/11:30pm 26.2 SE 22 24 1011.3 - - - - - - - - -
16/11:00pm 26.1 SE 21 23 1011.2 - - - - - - - - -
16/10:30pm 26.1 SE 20 23 1011.7 - - - - - - - - -
16/10:00pm 26.3 SE 22 25 1011.5 - - - - - - - - -
16/09:30pm 26.1 SE 22 25 1011.7 - - - - - - - - -
16/09:00pm 26.3 SSE 23 27 1011.6 - - - - - - - - -
16/08:30pm 26.1 SSE 21 26 1011.4 - - - - - - - - -
16/08:00pm 26.1 SSE 23 26 1011.3 - - - - - - - - -
16/07:30pm 26.3 SSE 23 26 1011.3 - - - - - - - - -
16/07:00pm 26.2 SSE 23 26 1011.0 - - - - - - - - -
16/06:30pm 26.2 SSE 24 26 1010.8 - - - - - - - - -
16/06:00pm 26.2 SSE 22 26 1010.6 - - - - - - - - -
16/05:30pm 26.1 SSE 22 26 1010.2 - - - - - - - - -
16/05:00pm 26.2 SSE 23 26 1009.8 - - - - - - - - -
16/04:30pm 26.2 SSE 23 26 1009.8 - - - - - - - - -
16/04:00pm 26.2 SSE 23 25 1009.5 - - - - - - - - -
16/03:30pm 26.3 SSE 23 27 1009.3 - - - - - - - - -
16/03:00pm 26.4 SSE 22 27 1009.2 - - - - - - - - -
16/02:30pm 26.5 SSE 23 26 1009.6 - - - - - - - - -
16/02:00pm 26.4 SSE 22 26 1009.6 - - - - - - - - -
16/01:30pm 26.4 SSE 23 26 1010.0 - - - - - - - - -
16/01:00pm 26.5 SSE 22 25 1010.3 - - - - - - - - -
16/12:30pm 26.5 SSE 22 26 1010.4 - - - - - - - - -
16/12:00pm 26.4 SSE 22 26 1010.4 - - - - - - - - -
16/11:30am 26.5 SSE 23 26 1010.2 - - - - - - - - -
16/11:00am 26.5 SSE 23 27 1010.2 - - - - - - - - -
16/10:30am 26.6 SSE 24 27 1010.5 - - - - - - - - -
16/10:00am 26.6 SSE 23 25 1010.5 - - - - - - - - -
16/09:30am 26.8 SSE 22 25 1010.7 - - - - - - - - -
16/09:00am 26.8 SSE 23 26 1010.3 - - - - - - - - -
16/08:30am 26.8 SSE 23 26 1010.2 - - - - - - - - -
16/08:00am 26.8 SSE 23 27 1009.7 - - - - - - - - -
16/07:30am 26.6 SSE 23 26 1009.6 - - - - - - - - -
16/07:00am 26.4 SE 23 25 1009.3 - - - - - - - - -
16/06:30am 26.5 SSE 21 23 1009.3 - - - - - - - - -
16/06:00am 26.4 SSE 23 25 1008.9 - - - - - - - - -
16/05:30am 26.2 SE 22 25 1008.4 - - - - - - - - -
16/05:00am 26.4 SE 23 26 1007.9 - - - - - - - - -
16/04:30am 26.4 SE 23 26 1007.5 - - - - - - - - -
16/04:00am 26.5 SE 25 27 1007.2 - - - - - - - - -
16/03:30am 26.7 SE 24 27 1007.5 - - - - - - - - -
16/03:00am 26.5 SE 23 27 1007.5 - - - - - - - - -
16/02:30am 26.6 SE 26 29 1007.5 - - - - - - - - -
16/02:00am 26.4 SE 24 29 1007.9 - - - - - - - - -
16/01:30am 26.0 SE 25 28 1008.1 - - - - - - - - -
16/01:00am 26.5 SE 24 28 1008.1 - - - - - - - - -
16/12:30am 26.8 SE 24 27 1008.5 - - - - - - - - -
16/12:00am 26.9 SE 24 27 1008.6 - - - - - - - - -

Other Formats:

Comma delimited format used in spreadsheet applications
http://www.bom.gov.au/fwo/IDQ60701/IDQ60701.94393.axf

JavaScript Object Notation format (JSON) in row-major order
http://www.bom.gov.au/fwo/IDQ60701/IDQ60701.94393.json